Hewlett Bay Park, New York
Current Conditions -  °F | °C
As of 7:51 AM on Thursday 18 Dec 2014 (Local Time) from KJFK Reporting Station
Scattered Clouds Scattered Clouds  
Wind Chill: 30°   Ceiling: Unl
Heat Index: 39°   Visibility: 10mi
Dew Point: 21°   Wind: 16mph
Humidity: 49%   Direction: 300°WNW
Pressure: 29.96"   Gusts: 28mph
Location:  40.637°N, 73.6912°W
Report Text: KJFK 181251Z 30014G24KT 10SM SCT040 SCT110 04/M06 A2996 RMK AO2 PK WND 31030/1223 SLP146 T00391061
Loading
Personal Weather Stations






























Interactive Weather Map New forecast layout! Learn more

10-Day Weather Forecast

Advertisements
Track Severe Weather on mobile